Terminal Aerodrome Forecast
Issued by NWS

Home | Current Version | Previous Version | Text Only | Print | Product List | Glossary On
Versions: 1 2 3 4 5 6 7 8 9 10 11 12 13 14 15 16 17
207
FTUS46 KMTR 252343
TAFMRY
TAF
KMRY 252343Z 2600/2624 25006KT P6SM OVC019
     FM260400 23006KT P6SM OVC009
     FM262100 29010KT P6SM FEW020=

USA.gov is the U.S. government's official web portal to all federal, state and local government web resources and services.